Photometre #347[NE_1.6] Troodos_CAO AOT

File : 20220928_347.hum

28/09/2022,04:24:45,TEMP=14.6,BA=5.64,STAT.A=0.5,ExtBa=13.96
28/09/2022,04:27:53,TEMP=15.0,BA=5.64,STAT.A=0.5,ExtBa=13.89
28/09/2022,04:31:34,TEMP=15.1,BA=5.64,STAT.A=0.5,ExtBa=13.79
28/09/2022,04:35:55,TEMP=15.3,BA=5.64,STAT.A=0.5,ExtBa=13.72
28/09/2022,04:41:10,TEMP=15.6,BA=5.64,STAT.A=0.5,ExtBa=13.73
28/09/2022,04:47:39,TEMP=15.8,BA=5.64,STAT.A=0.5,ExtBa=13.77
28/09/2022,04:55:49,TEMP=16.1,BA=5.64,STAT.B=0.5,ExtBa=13.85
28/09/2022,05:04:26,TEMP=16.7,BA=5.44,STAT.A=0.5,ExtBa=12.76
28/09/2022,05:06:18,TEMP=17.0,BA=5.44,STAT.A=0.5,ExtBa=12.77
28/09/2022,05:09:00,TEMP=17.1,BA=5.44,STAT.A=0.5,ExtBa=12.85
28/09/2022,05:14:35,TEMP=17.0,BA=5.44,STAT.A=0.5,ExtBa=13.06
28/09/2022,05:20:59,TEMP=17.2,BA=5.64,STAT.C=0.5,ExtBa=13.25
28/09/2022,05:34:26,TEMP=18.0,BA=5.40,STAT.A=0.5,ExtBa=12.78
28/09/2022,05:37:08,TEMP=18.0,BA=5.40,STAT.A=0.5,ExtBa=12.90
28/09/2022,05:47:33,TEMP=17.8,BA=5.64,STAT.A=0.5,ExtBa=13.26
28/09/2022,06:00:15,TEMP=18.1,BA=5.60,STAT.A=0.5,ExtBa=13.50
28/09/2022,06:16:12,TEMP=19.0,BA=5.64,STAT.B=0.5,ExtBa=13.63
28/09/2022,06:24:54,TEMP=20.0,BA=5.44,STAT.D=0.5,ExtBa=12.92
28/09/2022,06:39:52,TEMP=20.4,BA=5.64,STAT.F,ExtBa=13.45
28/09/2022,06:54:50,TEMP=20.6,BA=5.40,STAT.D=0.5,ExtBa=12.86
28/09/2022,07:09:50,TEMP=21.7,BA=5.64,STAT.D=0.5,ExtBa=13.37
28/09/2022,07:24:50,TEMP=22.0,BA=5.64,STAT.D=0.5,ExtBa=13.49
28/09/2022,07:39:52,TEMP=22.4,BA=5.64,STAT.F,ExtBa=13.58
28/09/2022,07:57:23,TEMP=22.2,BA=5.40,STAT.D=0.5,ExtBa=13.07
28/09/2022,08:09:51,TEMP=22.3,BA=5.64,STAT.D=0.5,ExtBa=13.41
28/09/2022,08:24:51,TEMP=23.2,BA=5.64,STAT.D=0.5,ExtBa=13.56
28/09/2022,08:39:52,TEMP=23.2,BA=5.64,STAT.F,ExtBa=13.61
28/09/2022,08:54:51,TEMP=23.2,BA=5.64,STAT.D=0.5,ExtBa=13.46
28/09/2022,09:09:51,TEMP=23.3,BA=5.64,STAT.D=0.5,ExtBa=13.66
28/09/2022,09:24:51,TEMP=23.3,BA=5.64,STAT.D=0.5,ExtBa=13.77
28/09/2022,09:39:53,TEMP=23.3,BA=5.64,STAT.F,ExtBa=13.81
28/09/2022,09:54:51,TEMP=23.6,BA=5.64,STAT.D=0.5,ExtBa=13.54
28/09/2022,10:09:51,TEMP=23.9,BA=5.64,STAT.D=0.5,ExtBa=13.78
28/09/2022,10:24:51,TEMP=23.5,BA=5.64,STAT.D=0.5,ExtBa=13.83
28/09/2022,10:39:52,TEMP=23.3,BA=5.64,STAT.F,ExtBa=13.81
28/09/2022,10:54:51,TEMP=23.3,BA=5.40,STAT.D=0.5,ExtBa=12.99
28/09/2022,11:09:51,TEMP=23.3,BA=5.60,STAT.D=0.5,ExtBa=13.44
28/09/2022,11:24:50,TEMP=23.4,BA=5.64,STAT.D=0.5,ExtBa=13.61
28/09/2022,11:39:52,TEMP=23.6,BA=5.64,STAT.F,ExtBa=13.73
28/09/2022,11:54:50,TEMP=23.4,BA=5.40,STAT.D=0.5,ExtBa=12.96
28/09/2022,12:09:50,TEMP=23.9,BA=5.60,STAT.D=0.5,ExtBa=13.46
28/09/2022,12:24:50,TEMP=23.7,BA=5.64,STAT.D=0.5,ExtBa=13.59
28/09/2022,12:39:52,TEMP=23.0,BA=5.64,STAT.F,ExtBa=13.69
28/09/2022,12:54:50,TEMP=22.0,BA=5.40,STAT.D=0.5,ExtBa=12.96
28/09/2022,13:03:30,TEMP=21.9,BA=5.60,STAT.B=0.5,ExtBa=13.29
28/09/2022,13:19:27,TEMP=21.4,BA=5.40,STAT.A=0.5,ExtBa=13.22
28/09/2022,13:32:09,TEMP=21.1,BA=5.64,STAT.A=0.5,ExtBa=13.43
28/09/2022,13:42:34,TEMP=21.0,BA=5.64,STAT.A=0.5,ExtBa=13.50
28/09/2022,13:51:18,TEMP=20.8,BA=5.64,STAT.A=0.5,ExtBa=13.56
28/09/2022,13:58:43,TEMP=20.7,BA=5.64,STAT.C=0.5,ExtBa=13.60
28/09/2022,14:12:14,TEMP=20.4,BA=5.40,STAT.A=0.5,ExtBa=12.85
28/09/2022,14:14:05,TEMP=20.5,BA=5.40,STAT.A=0.5,ExtBa=12.90
28/09/2022,14:15:56,TEMP=20.4,BA=5.40,STAT.A=0.5,ExtBa=12.93
28/09/2022,14:19:59,TEMP=19.9,BA=5.40,STAT.A=0.5,ExtBa=13.09
28/09/2022,14:23:53,TEMP=19.8,BA=5.44,STAT.B=0.5,ExtBa=13.17
28/09/2022,14:32:03,TEMP=19.2,BA=5.64,STAT.A=0.5,ExtBa=13.38
28/09/2022,14:38:31,TEMP=18.6,BA=5.64,STAT.A=0.5,ExtBa=13.45
28/09/2022,14:43:47,TEMP=18.4,BA=5.52,STAT.A=0.5,ExtBa=13.48
28/09/2022,14:50:45,TEMP=18.2,BA=5.44,STAT.A=0.5,ExtBa=13.50
28/09/2022,14:52:36,TEMP=18.5,BA=5.44,STAT.A=0.5,ExtBa=13.35
28/09/2022,14:54:57,TEMP=18.5,BA=5.44,STAT.A=0.5,ExtBa=13.22